Time;durP1;ratioP1;P1;durP2;ratioP2;P2;SDS_P1;SDS_P2;PMS_P1;PMS_P2;Temp;Humidity;BMP_temperature;BMP_pressure;BME280_temperature;BME280_humidity;BME280_pressure;Samples;Min_cycle;Max_cycle;Signal;HPM_P1;HPM_P2
2022/07/23 00:00:32;;;;;;;2.47;1.88;;;15.50;99.90;;;;;;4993428;28;20104;-80
2022/07/23 00:02:58;;;;;;;3.92;2.08;;;15.50;99.90;;;;;;4994771;28;20046;-80
2022/07/23 00:05:23;;;;;;;3.35;2.10;;;15.50;99.90;;;;;;4994728;28;20042;-80
2022/07/23 00:07:49;;;;;;;4.75;2.08;;;15.40;99.90;;;;;;4977349;28;20042;-80
2022/07/23 00:10:15;;;;;;;3.42;2.55;;;15.40;99.90;;;;;;4994593;28;20144;-80
2022/07/23 00:12:41;;;;;;;5.22;2.50;;;15.40;99.90;;;;;;4993799;28;20043;-81
2022/07/23 00:15:07;;;;;;;5.75;2.92;;;15.40;99.90;;;;;;4993178;28;20050;-80
2022/07/23 00:17:33;;;;;;;4.80;2.28;;;15.50;99.90;;;;;;4994551;28;20057;-81
2022/07/23 00:19:59;;;;;;;4.03;2.20;;;15.50;99.90;;;;;;4993329;28;20038;-80
2022/07/23 00:22:25;;;;;;;4.15;1.73;;;15.40;99.90;;;;;;4993373;28;20057;-81
2022/07/23 00:24:51;;;;;;;3.33;1.77;;;15.40;99.90;;;;;;4994462;28;20050;-81
2022/07/23 00:27:16;;;;;;;4.05;1.52;;;15.40;99.90;;;;;;4993637;28;20045;-82
2022/07/23 00:29:42;;;;;;;3.75;1.40;;;15.50;99.90;;;;;;4994160;28;20409;-80
2022/07/23 00:32:08;;;;;;;3.03;1.02;;;15.40;99.90;;;;;;4993162;28;20065;-81
2022/07/23 00:34:33;;;;;;;2.47;1.60;;;15.50;99.90;;;;;;4993072;28;20050;-81
2022/07/23 00:36:59;;;;;;;2.33;1.27;;;15.50;99.90;;;;;;4994506;28;20042;-81
2022/07/23 00:39:25;;;;;;;3.28;1.02;;;15.50;99.90;;;;;;4994046;28;20129;-81
2022/07/23 00:41:51;;;;;;;3.05;1.10;;;15.50;99.90;;;;;;4993094;28;20112;-80
2022/07/23 00:44:18;;;;;;;3.60;1.40;;;15.50;99.90;;;;;;4992959;28;20054;-80
2022/07/23 00:46:52;;;;;;;3.20;1.00;;;15.50;99.90;;;;;;4993055;28;20054;-81
2022/07/23 00:49:19;;;;;;;6.13;1.15;;;15.50;99.90;;;;;;4993701;28;20043;-82
2022/07/23 00:51:46;;;;;;;2.80;1.10;;;15.50;99.90;;;;;;4992940;28;20047;-82
2022/07/23 00:54:11;;;;;;;2.08;0.88;;;15.50;99.90;;;;;;4993818;28;20123;-81
2022/07/23 00:56:39;;;;;;;3.65;1.05;;;15.50;99.90;;;;;;4992476;28;20065;-82
2022/07/23 00:59:07;;;;;;;3.70;1.25;;;15.40;99.90;;;;;;4992752;28;20096;-81
2022/07/23 01:01:33;;;;;;;4.38;1.52;;;15.40;99.90;;;;;;4992912;28;20054;-80
2022/07/23 01:03:58;;;;;;;2.35;1.20;;;15.40;99.90;;;;;;4994282;28;20598;-81
2022/07/23 01:06:24;;;;;;;2.30;1.25;;;15.40;99.90;;;;;;4993788;28;20038;-81
2022/07/23 01:08:50;;;;;;;3.13;1.30;;;15.40;99.90;;;;;;4993843;28;20380;-81
2022/07/23 01:11:17;;;;;;;3.28;1.40;;;15.40;99.90;;;;;;4992726;28;20478;-80
2022/07/23 01:13:44;;;;;;;3.03;1.50;;;15.40;99.90;;;;;;4993678;28;20061;-81
2022/07/23 01:16:09;;;;;;;3.42;1.58;;;15.40;99.90;;;;;;4993873;28;20046;-81
2022/07/23 01:18:35;;;;;;;1.90;1.33;;;15.30;99.90;;;;;;4993835;28;20125;-81
2022/07/23 01:21:01;;;;;;;3.15;1.63;;;15.30;99.90;;;;;;4993183;28;20500;-81
2022/07/23 01:23:27;;;;;;;3.63;1.80;;;15.20;99.90;;;;;;4976513;28;20046;-82
2022/07/23 01:25:53;;;;;;;4.70;1.52;;;15.20;99.90;;;;;;4993540;28;20486;-82
2022/07/23 01:28:19;;;;;;;3.13;1.60;;;15.20;99.90;;;;;;4991634;28;20069;-81
2022/07/23 01:30:45;;;;;;;3.20;1.65;;;15.20;99.90;;;;;;4992824;28;20046;-81
2022/07/23 01:33:11;;;;;;;2.33;1.63;;;15.20;99.90;;;;;;4994077;28;20042;-81
2022/07/23 01:35:37;;;;;;;3.38;1.55;;;15.20;99.90;;;;;;4993515;28;20502;-82
2022/07/23 01:38:02;;;;;;;6.28;1.77;;;15.20;99.90;;;;;;4976335;28;20046;-81
2022/07/23 01:40:28;;;;;;;3.55;1.80;;;15.00;99.90;;;;;;4992610;28;20092;-82
2022/07/23 01:42:54;;;;;;;5.07;1.55;;;15.10;99.90;;;;;;4992375;28;20141;-81
2022/07/23 01:45:19;;;;;;;3.67;2.00;;;15.10;99.90;;;;;;4992779;28;20053;-80
2022/07/23 01:47:45;;;;;;;2.58;1.73;;;15.10;99.90;;;;;;4993289;28;20045;-81
2022/07/23 01:50:11;;;;;;;3.72;1.80;;;15.10;99.90;;;;;;4992561;28;20398;-80
2022/07/23 01:52:37;;;;;;;2.25;1.70;;;15.00;99.90;;;;;;4993603;28;20042;-81
2022/07/23 01:55:03;;;;;;;2.15;1.65;;;15.00;99.90;;;;;;4993465;28;20062;-80
2022/07/23 01:57:28;;;;;;;3.75;1.92;;;14.90;99.90;;;;;;4992693;28;20046;-80
2022/07/23 01:59:54;;;;;;;3.00;1.73;;;14.90;99.90;;;;;;4993909;28;20442;-81
2022/07/23 02:02:20;;;;;;;5.13;1.90;;;14.80;99.90;;;;;;4993393;28;20048;-81
2022/07/23 02:04:46;;;;;;;3.63;1.90;;;14.90;99.90;;;;;;4993632;28;20129;-81
2022/07/23 02:07:11;;;;;;;3.63;1.58;;;14.70;99.90;;;;;;4996138;28;20093;-81
2022/07/23 02:09:37;;;;;;;3.13;2.00;;;14.70;99.90;;;;;;4995614;28;20050;-81
2022/07/23 02:12:03;;;;;;;4.72;2.10;;;14.70;99.90;;;;;;4996566;28;20078;-81
2022/07/23 02:14:28;;;;;;;3.17;1.63;;;14.60;99.90;;;;;;4995686;28;20430;-81
2022/07/23 02:16:54;;;;;;;5.07;1.90;;;14.60;99.90;;;;;;4996903;28;20100;-81
2022/07/23 02:19:20;;;;;;;3.55;1.70;;;14.60;99.90;;;;;;4996595;28;20558;-81
2022/07/23 02:21:46;;;;;;;3.20;1.85;;;14.50;99.90;;;;;;4996603;28;20117;-81
2022/07/23 02:24:11;;;;;;;3.83;1.85;;;14.50;99.90;;;;;;4996515;28;20057;-82
2022/07/23 02:26:37;;;;;;;2.92;1.90;;;14.50;99.90;;;;;;4994677;28;20045;-81
2022/07/23 02:29:03;;;;;;;3.28;2.10;;;14.50;99.90;;;;;;4996479;28;20062;-81
2022/07/23 02:31:30;;;;;;;5.03;1.85;;;14.40;99.90;;;;;;4996506;28;20069;-82
2022/07/23 02:33:56;;;;;;;2.67;1.60;;;14.40;99.90;;;;;;4996404;28;20469;-81
2022/07/23 02:36:23;;;;;;;4.65;1.70;;;14.30;99.90;;;;;;4996620;28;20046;-81
2022/07/23 02:38:49;;;;;;;3.40;1.77;;;14.30;99.90;;;;;;4995296;28;20050;-82
2022/07/23 02:41:14;;;;;;;4.25;1.83;;;14.20;99.90;;;;;;4996067;28;20049;-81
2022/07/23 02:43:40;;;;;;;3.80;1.70;;;14.20;99.90;;;;;;4995418;28;20042;-82
2022/07/23 02:46:06;;;;;;;2.83;1.90;;;14.20;99.90;;;;;;4995292;28;20042;-81
2022/07/23 02:48:31;;;;;;;4.00;1.50;;;14.10;99.90;;;;;;4995330;28;20046;-80
2022/07/23 02:50:57;;;;;;;3.72;2.08;;;14.10;99.90;;;;;;4996280;28;20130;-81
2022/07/23 02:53:23;;;;;;;3.55;1.98;;;14.10;99.90;;;;;;4994908;28;20053;-81
2022/07/23 02:55:49;;;;;;;3.47;1.90;;;14.10;99.90;;;;;;4994822;28;20050;-80
2022/07/23 02:58:15;;;;;;;3.95;2.00;;;14.00;99.90;;;;;;4994592;28;20061;-81
2022/07/23 03:00:40;;;;;;;2.78;1.85;;;14.00;99.90;;;;;;4995326;28;20482;-81
2022/07/23 03:03:07;;;;;;;2.80;1.90;;;14.00;99.90;;;;;;4995054;28;20046;-81
2022/07/23 03:05:33;;;;;;;2.92;2.10;;;14.00;99.90;;;;;;4994635;28;20058;-81
2022/07/23 03:07:59;;;;;;;5.60;2.83;;;14.00;99.90;;;;;;4995930;28;20046;-80
2022/07/23 03:10:25;;;;;;;4.45;2.10;;;14.00;99.90;;;;;;4995474;28;20505;-81
2022/07/23 03:12:50;;;;;;;5.13;2.28;;;13.90;99.90;;;;;;4994916;28;20104;-81
2022/07/23 03:15:16;;;;;;;3.15;1.77;;;13.90;99.90;;;;;;4995716;28;20435;-81
2022/07/23 03:17:42;;;;;;;4.00;2.05;;;13.90;99.90;;;;;;4995623;28;20522;-81
2022/07/23 03:20:09;;;;;;;3.90;2.03;;;13.90;99.90;;;;;;4994557;28;20082;-81
2022/07/23 03:22:34;;;;;;;3.47;2.33;;;13.90;99.90;;;;;;4994511;28;20212;-82
2022/07/23 03:25:00;;;;;;;3.10;2.13;;;13.90;99.90;;;;;;4995278;28;20125;-81
2022/07/23 03:27:28;;;;;;;3.92;2.15;;;13.90;99.90;;;;;;4994592;28;20065;-80
2022/07/23 03:29:55;;;;;;;2.17;1.77;;;13.90;99.90;;;;;;4995570;28;20050;-80
2022/07/23 03:32:22;;;;;;;4.07;2.28;;;13.90;99.90;;;;;;4994162;28;20038;-81
2022/07/23 03:34:48;;;;;;;4.50;2.53;;;13.90;99.90;;;;;;4994421;28;20046;-81
2022/07/23 03:37:14;;;;;;;4.70;2.20;;;13.90;99.90;;;;;;4995215;28;20064;-81
2022/07/23 03:39:40;;;;;;;3.50;1.98;;;13.90;99.90;;;;;;4993916;28;20043;-82
2022/07/23 03:42:07;;;;;;;6.15;2.10;;;13.90;99.90;;;;;;4995256;28;20049;-81
2022/07/23 03:44:33;;;;;;;4.22;2.20;;;13.80;99.90;;;;;;4993941;28;20138;-80
2022/07/23 03:46:59;;;;;;;3.15;2.10;;;13.90;99.90;;;;;;4995050;28;20046;-81
2022/07/23 03:49:24;;;;;;;2.92;2.05;;;13.90;99.90;;;;;;4994947;28;20101;-82
2022/07/23 03:51:50;;;;;;;3.70;2.13;;;13.90;99.90;;;;;;4993628;28;20046;-81
2022/07/23 03:54:16;;;;;;;4.72;2.38;;;14.00;99.90;;;;;;4994680;28;20050;-81
2022/07/23 03:56:42;;;;;;;4.13;2.60;;;13.90;99.90;;;;;;4994333;28;20451;-81
2022/07/23 03:59:08;;;;;;;4.88;2.50;;;13.90;99.90;;;;;;4977487;28;20046;-81
2022/07/23 04:01:34;;;;;;;3.75;2.28;;;13.90;99.90;;;;;;4994017;28;20082;-81
2022/07/23 04:04:00;;;;;;;3.78;2.60;;;13.80;99.90;;;;;;4995039;28;20077;-81
2022/07/23 04:06:26;;;;;;;4.63;2.92;;;13.80;99.90;;;;;;4993407;28;20048;-81
2022/07/23 04:08:51;;;;;;;6.32;3.55;;;13.80;99.90;;;;;;4993291;28;20058;-81
2022/07/23 04:11:17;;;;;;;5.18;2.58;;;13.80;99.90;;;;;;4994434;28;20050;-81
2022/07/23 04:13:43;;;;;;;3.35;2.40;;;13.80;99.90;;;;;;4994666;28;20097;-81
2022/07/23 04:16:08;;;;;;;4.50;2.58;;;13.70;99.90;;;;;;4994710;28;20042;-82
2022/07/23 04:18:34;;;;;;;5.45;3.42;;;13.70;99.90;;;;;;4994551;28;20081;-81
2022/07/23 04:21:00;;;;;;;6.32;3.08;;;13.70;99.90;;;;;;4994490;28;20042;-80
2022/07/23 04:23:25;;;;;;;4.65;2.70;;;13.80;99.90;;;;;;4993369;28;20085;-81
2022/07/23 04:25:51;;;;;;;5.22;3.22;;;13.80;99.90;;;;;;4993363;28;20101;-81
2022/07/23 04:28:17;;;;;;;7.35;3.22;;;13.80;99.90;;;;;;4993401;28;20486;-80
2022/07/23 04:30:43;;;;;;;7.05;3.10;;;13.90;99.90;;;;;;4994365;28;20046;-81
2022/07/23 04:33:09;;;;;;;5.13;2.70;;;13.90;99.90;;;;;;4994285;28;20050;-81
2022/07/23 04:35:34;;;;;;;4.20;2.58;;;14.00;99.90;;;;;;4994337;28;20441;-81
2022/07/23 04:38:00;;;;;;;5.13;2.95;;;14.00;99.90;;;;;;4977112;28;20508;-81
2022/07/23 04:40:27;;;;;;;5.25;2.85;;;14.10;99.90;;;;;;4994414;28;20057;-80
2022/07/23 04:42:53;;;;;;;6.68;2.92;;;14.10;99.90;;;;;;4977009;28;20521;-81
2022/07/23 04:45:18;;;;;;;4.90;2.60;;;14.20;99.90;;;;;;4994430;28;20051;-80
2022/07/23 04:47:44;;;;;;;5.63;2.90;;;14.20;99.90;;;;;;4994126;28;20049;-80
2022/07/23 04:50:10;;;;;;;3.50;2.13;;;14.30;99.90;;;;;;4976676;28;20050;-81
2022/07/23 04:52:36;;;;;;;3.90;2.40;;;14.30;99.90;;;;;;4993804;28;20177;-81
2022/07/23 04:55:01;;;;;;;5.50;2.40;;;14.30;99.90;;;;;;4992983;28;20479;-81
2022/07/23 04:57:27;;;;;;;4.28;2.35;;;14.40;99.90;;;;;;4992596;28;20670;-81
2022/07/23 04:59:53;;;;;;;5.70;2.55;;;14.40;99.90;;;;;;4992649;28;20140;-80
2022/07/23 05:02:19;;;;;;;5.20;2.22;;;14.50;99.90;;;;;;4992505;28;20117;-80
2022/07/23 05:04:44;;;;;;;4.65;2.58;;;14.50;99.90;;;;;;4993746;28;20046;-81
2022/07/23 05:07:10;;;;;;;5.35;2.47;;;14.50;99.90;;;;;;4976273;28;20491;-81
2022/07/23 05:09:36;;;;;;;5.82;1.92;;;14.60;99.90;;;;;;4993770;28;20054;-81
2022/07/23 05:12:02;;;;;;;3.80;1.58;;;14.60;99.90;;;;;;4993933;28;20560;-83
2022/07/23 05:14:28;;;;;;;5.50;2.75;;;14.60;99.90;;;;;;4993810;28;20513;-85
2022/07/23 05:16:53;;;;;;;3.28;1.85;;;14.60;99.90;;;;;;4976894;28;20050;-84
2022/07/23 05:19:19;;;;;;;4.00;1.95;;;14.70;99.90;;;;;;4976447;28;20050;-81
2022/07/23 05:21:45;;;;;;;3.78;1.83;;;14.70;99.90;;;;;;4992526;28;20053;-81
2022/07/23 05:24:11;;;;;;;3.72;1.98;;;14.70;99.90;;;;;;4992623;28;20560;-82
2022/07/23 05:26:36;;;;;;;3.30;1.73;;;14.80;99.90;;;;;;4992835;28;20049;-81
2022/07/23 05:29:02;;;;;;;3.40;2.00;;;14.70;99.90;;;;;;4993718;28;20085;-84
2022/07/23 05:31:28;;;;;;;3.10;1.85;;;14.80;99.90;;;;;;4993615;28;20510;-81
2022/07/23 05:33:54;;;;;;;5.05;1.80;;;14.80;99.90;;;;;;4993547;28;20130;-81
2022/07/23 05:36:19;;;;;;;2.58;1.70;;;14.90;99.90;;;;;;4992513;28;20053;-82
2022/07/23 05:38:45;;;;;;;3.15;1.90;;;14.90;99.90;;;;;;4992773;28;20402;-80
2022/07/23 05:41:11;;;;;;;3.15;1.60;;;15.00;99.90;;;;;;4995315;28;20050;-81
2022/07/23 05:43:36;;;;;;;3.50;1.48;;;15.00;99.90;;;;;;4996278;28;20042;-82
2022/07/23 05:46:02;;;;;;;4.18;1.73;;;15.00;99.90;;;;;;4997303;28;20181;-81
2022/07/23 05:48:28;;;;;;;3.53;1.75;;;15.10;99.90;;;;;;4997194;28;20464;-82
2022/07/23 05:50:54;;;;;;;2.90;1.30;;;15.10;99.90;;;;;;4979908;28;20137;-81
2022/07/23 05:53:20;;;;;;;2.55;1.55;;;15.10;99.90;;;;;;4996271;28;20144;-81
2022/07/23 05:55:46;;;;;;;5.53;1.80;;;15.20;99.90;;;;;;4997617;28;20105;-81
2022/07/23 05:58:11;;;;;;;4.00;1.50;;;15.20;99.90;;;;;;4996694;28;20056;-82
2022/07/23 06:00:37;;;;;;;2.97;1.50;;;15.30;99.90;;;;;;4996031;28;20128;-81
2022/07/23 06:03:03;;;;;;;4.30;1.73;;;15.30;99.90;;;;;;4979741;28;20093;-81
2022/07/23 06:05:29;;;;;;;3.20;1.45;;;15.30;99.90;;;;;;4996826;28;20051;-80
2022/07/23 06:07:54;;;;;;;2.47;1.52;;;15.30;99.90;;;;;;4996098;28;20038;-81
2022/07/23 06:10:20;;;;;;;4.25;1.40;;;15.40;99.90;;;;;;4995760;28;20109;-81
2022/07/23 06:12:47;;;;;;;3.38;1.70;;;15.40;99.90;;;;;;4995601;28;20562;-82
2022/07/23 06:15:12;;;;;;;3.03;1.63;;;15.40;99.90;;;;;;4995807;28;20086;-82
2022/07/23 06:17:41;;;;;;;1.95;1.35;;;15.40;99.90;;;;;;4996653;28;20052;-81
2022/07/23 06:20:08;;;;;;;4.88;1.55;;;15.50;99.90;;;;;;4995308;28;20121;-81
2022/07/23 06:22:35;;;;;;;2.38;1.50;;;15.50;99.90;;;;;;4995744;28;20132;-81
2022/07/23 06:25:00;;;;;;;2.10;1.20;;;15.60;99.90;;;;;;4997307;28;20092;-81
2022/07/23 06:27:26;;;;;;;4.18;1.40;;;15.60;99.90;;;;;;4996354;28;20510;-81
2022/07/23 06:29:52;;;;;;;4.05;1.30;;;15.70;99.90;;;;;;4995574;28;20093;-82
2022/07/23 06:32:18;;;;;;;3.25;1.17;;;15.80;99.90;;;;;;4996509;28;20053;-82
2022/07/23 06:34:43;;;;;;;2.63;1.20;;;15.80;99.90;;;;;;4996247;28;20457;-81
2022/07/23 06:37:09;;;;;;;1.70;1.10;;;15.90;99.90;;;;;;4979384;28;20050;-83
2022/07/23 06:39:35;;;;;;;2.58;1.20;;;15.90;99.90;;;;;;4996374;28;20100;-81
2022/07/23 06:42:01;;;;;;;2.30;1.10;;;15.90;99.90;;;;;;4996493;28;20462;-83
2022/07/23 06:44:27;;;;;;;4.32;1.33;;;16.00;99.90;;;;;;4996230;28;20081;-82
2022/07/23 06:46:53;;;;;;;1.55;0.90;;;16.10;99.90;;;;;;4995100;28;20100;-82
2022/07/23 06:49:18;;;;;;;2.80;0.95;;;16.10;99.90;;;;;;4996088;28;20121;-81
2022/07/23 06:51:44;;;;;;;2.80;1.15;;;16.10;99.90;;;;;;4978509;28;20537;-81
2022/07/23 06:54:10;;;;;;;0.98;0.75;;;16.20;99.90;;;;;;4996465;28;20054;-82
2022/07/23 06:56:36;;;;;;;1.15;0.70;;;16.20;99.90;;;;;;4978818;28;20053;-82
2022/07/23 06:59:02;;;;;;;2.40;0.73;;;16.30;99.90;;;;;;4995610;28;20149;-81
2022/07/23 07:01:28;;;;;;;1.55;0.60;;;16.30;99.90;;;;;;4978504;28;20181;-83
2022/07/23 07:03:54;;;;;;;1.75;0.70;;;16.40;99.90;;;;;;4994508;28;20134;-85
2022/07/23 07:06:20;;;;;;;0.80;0.60;;;16.40;99.90;;;;;;4994225;28;20038;-82
2022/07/23 07:08:46;;;;;;;1.27;0.70;;;16.40;99.90;;;;;;4995046;28;20545;-82
2022/07/23 07:11:11;;;;;;;1.98;0.50;;;16.50;99.90;;;;;;4994953;28;20403;-82
2022/07/23 07:13:37;;;;;;;1.33;0.50;;;16.50;99.90;;;;;;4994692;28;20090;-82
2022/07/23 07:16:04;;;;;;;2.88;0.60;;;16.60;99.90;;;;;;4994725;28;20050;-81
2022/07/23 07:18:30;;;;;;;1.23;0.40;;;16.70;99.90;;;;;;4962236;28;20061;-81
2022/07/23 07:20:56;;;;;;;0.70;0.50;;;16.70;99.90;;;;;;4994463;28;20050;-83
2022/07/23 07:23:22;;;;;;;1.00;0.50;;;16.70;99.90;;;;;;4995723;28;20054;-81
2022/07/23 07:25:48;;;;;;;2.35;0.60;;;16.80;99.90;;;;;;4994232;28;20058;-82
2022/07/23 07:28:14;;;;;;;1.45;0.47;;;16.80;99.90;;;;;;4994030;28;20058;-82
2022/07/23 07:30:40;;;;;;;0.70;0.30;;;16.80;99.90;;;;;;4995637;28;20058;-82
2022/07/23 07:33:06;;;;;;;1.80;0.30;;;16.80;99.90;;;;;;4978302;28;20113;-81
2022/07/23 07:35:32;;;;;;;1.13;0.35;;;16.80;99.90;;;;;;4978437;28;20057;-83
2022/07/23 07:37:59;;;;;;;1.40;0.40;;;16.80;99.90;;;;;;4993857;28;20046;-83
2022/07/23 07:40:25;;;;;;;1.67;0.50;;;16.90;99.90;;;;;;4994487;28;20046;-80
2022/07/23 07:42:52;;;;;;;3.85;0.57;;;16.90;99.90;;;;;;4994272;28;20054;-85
2022/07/23 07:45:21;;;;;;;0.60;0.30;;;16.90;99.90;;;;;;4962205;28;20105;-85
2022/07/23 07:47:47;;;;;;;1.50;0.50;;;17.00;99.90;;;;;;4993945;28;20515;-83
2022/07/23 07:50:12;;;;;;;1.50;0.40;;;17.00;99.90;;;;;;4994982;28;20482;-80
2022/07/23 07:52:38;;;;;;;0.60;0.30;;;17.10;99.90;;;;;;4995047;28;20049;-80
2022/07/23 07:55:06;;;;;;;0.22;0.20;;;17.10;99.90;;;;;;4994242;28;20050;-79
2022/07/23 07:57:33;;;;;;;0.73;0.20;;;17.10;99.90;;;;;;4994237;28;20069;-85
2022/07/23 07:59:58;;;;;;;0.30;0.20;;;17.20;99.90;;;;;;4993742;28;20046;-84
2022/07/23 08:02:24;;;;;;;1.00;0.20;;;17.20;99.90;;;;;;4993393;28;20048;-77
2022/07/23 08:04:50;;;;;;;0.30;0.10;;;17.30;99.90;;;;;;4993845;28;20074;-82
2022/07/23 08:07:19;;;;;;;0.95;0.20;;;17.30;99.90;;;;;;4993290;28;20039;-86
2022/07/23 08:09:44;;;;;;;0.47;0.20;;;17.30;99.90;;;;;;4977290;28;20108;-81
2022/07/23 08:12:10;;;;;;;0.40;0.30;;;17.40;99.90;;;;;;4994292;28;20046;-85
2022/07/23 08:14:36;;;;;;;1.52;0.22;;;17.40;99.90;;;;;;4994462;28;20049;-87
2022/07/23 08:17:01;;;;;;;1.27;0.22;;;17.40;99.90;;;;;;4977643;28;20547;-83
2022/07/23 08:19:27;;;;;;;1.65;0.30;;;17.40;99.90;;;;;;4994412;28;20040;-82
2022/07/23 08:21:53;;;;;;;0.30;0.20;;;17.40;99.90;;;;;;4993253;28;20038;-79
2022/07/23 08:24:18;;;;;;;0.30;0.20;;;17.30;99.90;;;;;;4994068;28;20042;-77
2022/07/23 08:26:44;;;;;;;1.70;0.30;;;17.30;99.90;;;;;;4993988;28;20065;-76
2022/07/23 08:29:10;;;;;;;0.20;0.20;;;17.20;99.90;;;;;;4993400;28;20058;-75
2022/07/23 08:31:36;;;;;;;1.95;0.20;;;17.20;99.90;;;;;;4993882;28;20116;-78
2022/07/23 08:34:02;;;;;;;0.68;0.20;;;17.20;99.90;;;;;;4994183;28;20505;-76
2022/07/23 08:36:31;;;;;;;0.45;0.20;;;17.20;99.90;;;;;;4993021;28;20039;-76
2022/07/23 08:38:59;;;;;;;1.00;0.28;;;17.30;99.90;;;;;;4994135;28;20133;-76
2022/07/23 08:41:27;;;;;;;1.17;0.45;;;17.40;99.90;;;;;;4993032;28;20042;-76
2022/07/23 08:43:53;;;;;;;1.40;0.30;;;17.40;99.90;;;;;;4993096;28;20034;-77
2022/07/23 08:46:19;;;;;;;0.35;0.10;;;17.50;99.90;;;;;;4993796;28;20145;-76
2022/07/23 08:48:48;;;;;;;0.20;0.20;;;17.60;99.90;;;;;;4993933;28;20050;-76
2022/07/23 08:51:14;;;;;;;0.52;0.20;;;17.70;99.90;;;;;;4993937;28;20038;-76
2022/07/23 08:53:41;;;;;;;1.73;0.20;;;17.80;99.90;;;;;;4992689;28;20042;-76
2022/07/23 08:56:08;;;;;;;1.08;0.30;;;17.90;99.90;;;;;;4991377;28;20089;-78
2022/07/23 08:58:34;;;;;;;0.20;0.20;;;17.90;99.90;;;;;;4993217;28;20042;-75
2022/07/23 09:01:00;;;;;;;1.55;0.30;;;18.00;99.90;;;;;;4992532;28;20126;-74
2022/07/23 09:03:29;;;;;;;0.77;0.22;;;18.00;99.90;;;;;;4990213;28;20494;-74
2022/07/23 09:05:57;;;;;;;1.08;0.30;;;18.00;99.90;;;;;;4993588;28;20074;-74
2022/07/23 09:08:38;;;;;;;0.30;0.20;;;18.00;99.90;;;;;;4993756;28;20037;-75
2022/07/23 09:11:08;;;;;;;0.75;0.20;;;18.00;99.90;;;;;;4993733;28;20045;-74
2022/07/23 09:13:41;;;;;;;1.27;0.30;;;18.00;99.90;;;;;;4984289;28;20042;-79
2022/07/23 09:16:21;;;;;;;1.08;0.28;;;18.00;99.90;;;;;;4970302;28;20038;-75
2022/07/23 09:18:50;;;;;;;0.73;0.30;;;18.00;99.90;;;;;;4992790;28;20046;-74
2022/07/23 09:21:23;;;;;;;1.48;0.30;;;18.00;99.90;;;;;;4989541;28;20049;-76
2022/07/23 09:23:50;;;;;;;0.35;0.30;;;18.00;99.90;;;;;;4989115;28;20540;-76
2022/07/23 09:26:47;;;;;;;0.30;0.30;;;18.10;99.90;;;;;;4986799;28;20042;-75
2022/07/23 09:29:22;;;;;;;1.05;0.40;;;18.10;99.90;;;;;;4992354;28;20062;-76
2022/07/23 09:31:52;;;;;;;1.50;0.30;;;18.20;99.90;;;;;;4990927;28;20382;-75
2022/07/23 09:34:30;;;;;;;0.47;0.30;;;18.30;99.90;;;;;;4989391;28;20129;-75
2022/07/23 09:37:08;;;;;;;3.50;0.60;;;18.30;99.90;;;;;;4989218;28;20050;-75
2022/07/23 09:39:34;;;;;;;1.02;0.38;;;18.50;99.90;;;;;;4987924;28;20054;-76
2022/07/23 09:42:38;;;;;;;1.35;0.47;;;18.50;99.90;;;;;;4992126;28;20133;-76
2022/07/23 09:45:10;;;;;;;1.05;0.30;;;18.60;99.90;;;;;;4911931;29;20040;-75
2022/07/23 09:47:36;;;;;;;0.75;0.30;;;18.70;99.90;;;;;;4911409;29;20062;-76
2022/07/23 09:50:11;;;;;;;1.88;0.30;;;18.70;99.90;;;;;;4952570;28;20065;-75
2022/07/23 09:52:44;;;;;;;0.60;0.30;;;18.80;99.90;;;;;;4989781;28;20046;-74
2022/07/23 09:55:09;;;;;;;;;;;18.70;99.90;;;;;;4994660;28;20069;-75
2022/07/23 09:57:35;;;;;;;0.88;0.20;;;18.70;99.90;;;;;;4973495;28;19975;-74
2022/07/23 10:00:06;;;;;;;0.40;0.35;;;18.70;99.90;;;;;;4990549;28;20054;-75
2022/07/23 10:02:35;;;;;;;1.50;0.35;;;18.60;99.90;;;;;;4990539;28;20429;-74
2022/07/23 10:05:02;;;;;;;1.60;0.22;;;18.60;99.90;;;;;;4986095;28;20042;-73
2022/07/23 10:07:31;;;;;;;0.30;0.22;;;18.60;99.90;;;;;;4989124;28;20049;-75
2022/07/23 10:09:58;;;;;;;1.08;0.30;;;18.60;99.90;;;;;;4988674;28;20061;-75
2022/07/23 10:15:08;;;;;;;0.50;0.30;;;18.70;99.90;;;;;;4991692;28;20058;-75
2022/07/23 10:17:35;;;;;;;2.03;0.30;;;18.90;99.90;;;;;;4974667;28;20054;-75
2022/07/23 10:20:01;;;;;;;2.30;0.30;;;18.90;99.90;;;;;;4974781;28;20049;-74
2022/07/23 10:23:00;;;;;;;0.68;0.20;;;19.00;99.90;;;;;;4972639;28;20722;-73
2022/07/23 10:25:41;;;;;;;1.17;0.30;;;19.00;99.90;;;;;;4986587;28;20565;-74
2022/07/23 10:28:18;;;;;;;0.60;0.30;;;19.00;99.90;;;;;;4987292;28;20097;-74
2022/07/23 10:31:09;;;;;;;0.70;0.30;;;19.00;99.90;;;;;;4988886;28;20054;-74
2022/07/23 10:34:12;;;;;;;1.20;0.30;;;19.00;99.90;;;;;;4989285;28;20050;-76
2022/07/23 10:36:52;;;;;;;0.50;0.22;;;19.10;99.90;;;;;;4989162;28;20054;-75
2022/07/23 10:39:24;;;;;;;1.10;0.30;;;19.10;99.90;;;;;;4989661;28;20056;-75
2022/07/23 10:41:51;;;;;;;0.98;0.30;;;19.10;99.90;;;;;;4996281;28;20125;-74
2022/07/23 10:44:22;;;;;;;0.30;0.20;;;19.00;99.90;;;;;;4995542;28;20096;-78
2022/07/23 10:49:42;;;;;;;1.00;0.32;;;19.20;99.90;;;;;;4996619;28;20054;-78
2022/07/23 10:52:13;;;;;;;0.85;0.20;;;19.30;99.90;;;;;;4995636;28;20447;-78
2022/07/23 10:55:16;;;;;;;1.33;0.27;;;19.40;99.90;;;;;;4979371;28;20132;-78
2022/07/23 10:57:50;;;;;;;0.52;0.35;;;19.40;99.90;;;;;;4995705;28;20053;-78
2022/07/23 11:00:28;;;;;;;0.40;0.30;;;19.50;99.90;;;;;;4995408;28;20146;-79
2022/07/23 11:02:59;;;;;;;1.17;0.40;;;19.50;99.90;;;;;;4995434;28;20058;-75
2022/07/23 11:05:43;;;;;;;3.13;0.82;;;19.50;99.90;;;;;;4996244;28;20042;-75
2022/07/23 11:08:10;;;;;;;0.60;0.20;;;19.50;99.90;;;;;;4995883;28;20049;-76
2022/07/23 11:10:46;;;;;;;0.45;0.40;;;19.50;99.90;;;;;;4996566;28;20047;-76
2022/07/23 11:13:24;;;;;;;1.85;0.40;;;19.50;99.90;;;;;;4995147;28;20046;-76
2022/07/23 11:16:01;;;;;;;0.50;0.40;;;19.50;99.90;;;;;;4995936;28;20050;-75
2022/07/23 11:18:40;;;;;;;0.65;0.30;;;19.50;99.90;;;;;;4994956;28;20058;-76
2022/07/23 11:21:26;;;;;;;0.85;0.30;;;19.50;99.90;;;;;;4995647;28;20101;-75
2022/07/23 11:24:07;;;;;;;2.40;0.40;;;19.40;99.90;;;;;;4995681;28;20054;-78
2022/07/23 11:26:38;;;;;;;0.35;0.30;;;19.50;99.90;;;;;;4995610;28;20052;-75
2022/07/23 11:29:26;;;;;;;0.50;0.40;;;19.50;99.90;;;;;;4993790;28;20062;-76
2022/07/23 11:32:00;;;;;;;0.40;0.30;;;19.50;99.90;;;;;;4995660;28;20144;-75
2022/07/23 11:34:38;;;;;;;1.25;0.35;;;19.50;99.90;;;;;;4995661;28;20055;-75
2022/07/23 11:37:05;;;;;;;0.90;0.38;;;19.50;99.90;;;;;;4995415;28;20486;-75
2022/07/23 11:39:32;;;;;;;0.80;0.35;;;19.50;99.90;;;;;;4994122;28;20092;-75
2022/07/23 11:41:59;;;;;;;1.33;0.47;;;19.60;99.90;;;;;;4994623;28;20052;-75
2022/07/23 11:44:46;;;;;;;1.65;0.60;;;19.60;99.90;;;;;;4995172;28;20057;-75
2022/07/23 11:47:13;;;;;;;0.65;0.40;;;19.70;99.90;;;;;;4994651;28;20133;-75
2022/07/23 11:49:54;;;;;;;2.30;0.52;;;19.60;99.90;;;;;;4994303;28;20402;-75
2022/07/23 11:52:20;;;;;;;0.57;0.50;;;19.70;99.90;;;;;;4995826;28;20053;-77
2022/07/23 11:55:08;;;;;;;1.98;0.63;;;19.70;99.90;;;;;;4977950;28;20050;-75
2022/07/23 11:57:43;;;;;;;1.10;0.60;;;19.70;99.90;;;;;;4994722;28;20092;-75
2022/07/23 12:00:25;;;;;;;2.05;0.40;;;19.70;99.90;;;;;;4995112;28;20077;-75
2022/07/23 12:03:00;;;;;;;2.83;0.60;;;19.60;99.90;;;;;;4994010;28;20105;-75
2022/07/23 12:05:28;;;;;;;1.63;0.75;;;19.50;99.90;;;;;;4977937;28;20508;-74
2022/07/23 12:07:56;;;;;;;0.60;0.50;;;19.50;99.90;;;;;;4994760;28;20045;-75
2022/07/23 12:10:36;;;;;;;0.95;0.47;;;19.60;99.90;;;;;;4988784;28;20054;-73
2022/07/23 12:13:05;;;;;;;2.33;0.60;;;19.70;99.90;;;;;;4987219;28;20104;-75
2022/07/23 12:15:38;;;;;;;1.25;0.60;;;19.70;99.90;;;;;;4984816;28;20060;-72
2022/07/23 12:18:06;;;;;;;2.15;0.60;;;19.70;99.90;;;;;;4981759;28;20058;-72
2022/07/23 12:20:44;;;;;;;1.15;0.60;;;19.70;99.90;;;;;;4980957;28;20970;-73
2022/07/23 12:23:13;;;;;;;0.93;0.50;;;19.60;99.90;;;;;;4981304;28;20050;-73
2022/07/23 12:25:42;;;;;;;0.98;0.50;;;19.60;99.90;;;;;;4985283;28;20046;-75
2022/07/23 12:28:37;;;;;;;0.98;0.55;;;19.50;99.90;;;;;;4984320;28;20388;-74
2022/07/23 12:31:03;;;;;;;1.30;0.60;;;19.40;99.90;;;;;;4981522;28;20057;-74
2022/07/23 12:33:33;;;;;;;2.88;0.68;;;19.40;99.90;;;;;;4984855;28;20046;-76
2022/07/23 12:36:03;;;;;;;1.02;0.60;;;19.40;99.90;;;;;;4982930;28;20169;-76
2022/07/23 12:38:37;;;;;;;1.38;0.60;;;19.40;99.90;;;;;;4996727;28;20049;-76
2022/07/23 12:41:04;;;;;;;3.00;0.60;;;19.40;99.90;;;;;;4985795;28;20089;-74
2022/07/23 12:43:36;;;;;;;3.35;0.70;;;19.40;99.90;;;;;;4982196;28;20050;-75
2022/07/23 12:46:11;;;;;;;1.60;0.63;;;19.50;99.90;;;;;;4968116;28;20054;-76
2022/07/23 12:48:49;;;;;;;0.75;0.70;;;19.60;99.90;;;;;;4981813;28;20480;-78
2022/07/23 12:51:21;;;;;;;0.93;0.60;;;19.70;99.90;;;;;;4991158;28;20054;-78
2022/07/23 12:54:04;;;;;;;2.88;0.70;;;19.80;99.90;;;;;;4992750;28;20057;-75
2022/07/23 12:56:32;;;;;;;1.67;0.70;;;19.80;99.90;;;;;;4993048;28;20112;-75
2022/07/23 12:59:06;;;;;;;2.45;0.70;;;19.90;99.90;;;;;;4993684;28;20042;-79